Time;durP1;ratioP1;P1;durP2;ratioP2;P2;SDS_P1;SDS_P2;PMS_P1;PMS_P2;Temp;Humidity;BMP_temperature;BMP_pressure;BME280_temperature;BME280_humidity;BME280_pressure;Samples;Min_cycle;Max_cycle;Signal;HPM_P1;HPM_P2
2023/03/18 00:03:00;;;;;;;6.30;1.20;;;15.30;37.50;;;;;;6220917;28;20033;-75
2023/03/18 00:06:03;;;;;;;2.00;0.98;;;15.30;37.70;;;;;;6179775;28;20133;-72
2023/03/18 00:09:04;;;;;;;3.05;0.88;;;15.30;37.80;;;;;;6196912;28;20124;-74
2023/03/18 00:12:07;;;;;;;9.90;1.27;;;15.20;37.80;;;;;;6195759;28;20034;-72
2023/03/18 00:15:10;;;;;;;7.18;1.30;;;15.20;38.00;;;;;;6195492;28;20030;-73
2023/03/18 00:18:11;;;;;;;3.65;1.42;;;15.10;38.20;;;;;;6199949;28;20036;-73
2023/03/18 00:21:13;;;;;;;7.07;1.20;;;15.10;38.20;;;;;;6219415;28;20029;-74
2023/03/18 00:24:14;;;;;;;6.10;0.90;;;15.10;38.40;;;;;;6219221;28;20034;-74
2023/03/18 00:27:15;;;;;;;2.28;1.15;;;15.10;38.40;;;;;;6218914;28;20129;-75
2023/03/18 00:30:17;;;;;;;3.58;1.55;;;15.10;38.40;;;;;;6218818;28;20030;-73
2023/03/18 00:33:18;;;;;;;6.05;1.20;;;15.20;38.60;;;;;;6218938;28;20032;-73
2023/03/18 00:36:24;;;;;;;3.95;1.20;;;15.00;38.70;;;;;;6202786;28;20040;-72
2023/03/18 00:39:27;;;;;;;8.18;1.40;;;15.00;38.80;;;;;;6220313;28;20030;-75
2023/03/18 00:42:36;;;;;;;4.88;1.23;;;14.90;38.90;;;;;;6220467;28;20026;-72
2023/03/18 00:45:38;;;;;;;5.95;1.70;;;14.90;39.00;;;;;;6219292;28;20504;-76
2023/03/18 00:48:39;;;;;;;4.97;1.27;;;14.80;39.20;;;;;;6218835;28;20565;-73
2023/03/18 00:51:41;;;;;;;4.28;1.50;;;14.80;39.30;;;;;;6218107;28;20172;-74
2023/03/18 00:54:42;;;;;;;3.65;1.45;;;14.70;39.40;;;;;;6202387;28;20049;-75
2023/03/18 00:57:44;;;;;;;7.00;1.23;;;14.70;39.60;;;;;;6218804;28;20058;-73
2023/03/18 01:00:49;;;;;;;3.20;1.02;;;14.60;39.70;;;;;;6218747;28;20152;-74
2023/03/18 01:03:51;;;;;;;4.40;0.95;;;14.60;39.90;;;;;;6218768;28;20081;-73
2023/03/18 01:06:51;;;;;;;15.45;1.05;;;14.60;40.00;;;;;;6218975;28;20034;-74
2023/03/18 01:09:53;;;;;;;5.32;1.75;;;14.60;40.10;;;;;;6202681;28;20064;-74
2023/03/18 01:12:56;;;;;;;3.75;1.00;;;14.50;40.30;;;;;;6202495;28;20490;-75
2023/03/18 01:15:59;;;;;;;4.38;1.38;;;14.50;40.60;;;;;;6218028;28;20490;-74
2023/03/18 01:19:01;;;;;;;11.30;1.45;;;14.40;40.60;;;;;;6193830;28;20144;-75
2023/03/18 01:22:03;;;;;;;4.78;1.40;;;14.40;40.60;;;;;;6193963;28;20073;-72
2023/03/18 01:25:11;;;;;;;6.28;1.50;;;14.40;40.60;;;;;;6214962;28;20068;-74
2023/03/18 01:28:14;;;;;;;1.10;0.82;;;14.30;40.70;;;;;;6217839;28;20041;-74
2023/03/18 01:31:18;;;;;;;4.38;1.48;;;14.30;40.80;;;;;;6233605;28;20032;-73
2023/03/18 01:34:20;;;;;;;10.85;1.80;;;14.40;41.00;;;;;;6219043;28;20037;-75
2023/03/18 01:37:25;;;;;;;4.13;1.33;;;14.30;41.10;;;;;;6217491;28;20028;-72
2023/03/18 01:40:41;;;;;;;1.88;0.90;;;14.30;41.30;;;;;;6203692;28;20058;-73
2023/03/18 01:43:45;;;;;;;3.85;1.38;;;14.30;41.30;;;;;;6221543;28;20458;-73
2023/03/18 01:46:48;;;;;;;2.08;1.08;;;14.30;41.50;;;;;;6241114;28;20038;-76
2023/03/18 01:49:51;;;;;;;2.38;1.00;;;14.20;41.60;;;;;;6207548;28;20032;-72
2023/03/18 01:53:02;;;;;;;3.88;1.30;;;14.20;41.90;;;;;;6218860;28;20080;-73
2023/03/18 01:56:03;;;;;;;9.02;1.65;;;14.10;42.00;;;;;;6212471;28;20034;-73
2023/03/18 01:59:07;;;;;;;2.70;1.35;;;14.10;42.10;;;;;;6192664;28;20038;-74
2023/03/18 02:02:13;;;;;;;1.58;0.80;;;14.00;42.10;;;;;;6193571;28;20049;-73
2023/03/18 02:09:38;;;;;;;7.13;1.38;;;14.00;42.40;;;;;;6203658;28;20029;-74
2023/03/18 02:12:46;;;;;;;2.67;0.90;;;13.90;42.70;;;;;;6200747;28;20030;-74
2023/03/18 02:16:02;;;;;;;4.47;1.27;;;13.80;42.70;;;;;;6217182;28;20133;-77
2023/03/18 02:19:14;;;;;;;2.80;1.10;;;13.80;42.90;;;;;;6209760;28;20031;-73
2023/03/18 02:22:28;;;;;;;3.75;1.17;;;13.70;43.00;;;;;;6213946;28;20022;-73
2023/03/18 02:25:48;;;;;;;2.40;1.17;;;13.70;43.20;;;;;;6194186;28;20064;-73
2023/03/18 02:28:53;;;;;;;2.75;0.95;;;13.70;43.40;;;;;;6192661;28;20113;-74
2023/03/18 02:31:55;;;;;;;0.95;0.77;;;13.70;43.70;;;;;;6192115;28;20040;-73
2023/03/18 02:35:01;;;;;;;4.40;1.42;;;13.60;43.70;;;;;;6193214;28;20791;-73
2023/03/18 02:38:05;;;;;;;4.60;1.48;;;13.50;43.90;;;;;;6216235;28;20493;-73
2023/03/18 02:41:11;;;;;;;2.80;1.15;;;13.50;44.10;;;;;;6200160;28;20037;-74
2023/03/18 02:44:18;;;;;;;2.15;1.10;;;13.40;44.10;;;;;;6216348;28;20375;-73
2023/03/18 02:47:43;;;;;;;2.30;1.20;;;13.50;44.30;;;;;;6217162;28;20033;-73
2023/03/18 02:50:49;;;;;;;1.80;1.25;;;13.40;44.20;;;;;;6217773;28;20034;-72
2023/03/18 02:53:53;;;;;;;2.00;1.10;;;13.40;44.30;;;;;;6198007;28;20105;-74
2023/03/18 02:56:55;;;;;;;3.45;1.45;;;13.40;44.40;;;;;;6191627;28;20129;-74
2023/03/18 02:59:56;;;;;;;3.17;1.50;;;13.40;44.40;;;;;;6191591;28;20041;-74
2023/03/18 03:02:59;;;;;;;3.25;1.08;;;13.30;44.40;;;;;;6192986;28;20030;-73
2023/03/18 03:06:00;;;;;;;7.60;1.65;;;13.40;44.40;;;;;;6193009;28;20569;-74
2023/03/18 03:09:06;;;;;;;3.40;1.17;;;13.40;44.40;;;;;;6191290;28;20720;-72
2023/03/18 03:12:09;;;;;;;2.05;1.30;;;13.40;44.40;;;;;;6175892;28;20462;-74
2023/03/18 03:15:15;;;;;;;2.83;1.20;;;13.40;44.40;;;;;;6192826;28;20397;-73
2023/03/18 03:18:21;;;;;;;4.95;1.35;;;13.50;44.40;;;;;;6197580;28;20042;-74
2023/03/18 03:21:23;;;;;;;1.90;1.25;;;13.50;44.30;;;;;;6204484;28;20051;-72
2023/03/18 03:24:24;;;;;;;5.38;1.77;;;13.50;44.30;;;;;;6219332;28;20458;-75
2023/03/18 03:27:26;;;;;;;6.07;1.38;;;13.50;44.20;;;;;;6224316;28;20093;-74
2023/03/18 03:30:28;;;;;;;4.40;1.40;;;13.60;44.20;;;;;;6221902;28;20373;-74
2023/03/18 03:33:30;;;;;;;3.47;1.15;;;13.60;44.20;;;;;;6220540;28;20030;-73
2023/03/18 03:36:36;;;;;;;4.00;1.30;;;13.60;44.40;;;;;;6220004;28;20033;-73
2023/03/18 03:39:37;;;;;;;2.72;1.25;;;13.60;44.50;;;;;;6197213;28;20041;-73
2023/03/18 03:42:39;;;;;;;5.68;1.60;;;13.60;44.60;;;;;;6195698;28;20037;-75
2023/03/18 03:45:40;;;;;;;4.40;1.40;;;13.50;44.60;;;;;;6195727;28;20071;-75
2023/03/18 03:48:44;;;;;;;4.97;1.52;;;13.50;44.80;;;;;;6196660;28;20076;-72
2023/03/18 03:51:47;;;;;;;6.80;1.42;;;13.50;44.80;;;;;;6195323;28;20045;-72
2023/03/18 03:54:49;;;;;;;6.55;1.58;;;13.50;44.90;;;;;;6180083;28;20060;-75
2023/03/18 03:57:50;;;;;;;2.35;1.30;;;13.40;44.90;;;;;;6196028;28;20034;-73
2023/03/18 04:00:51;;;;;;;5.80;1.33;;;13.40;44.90;;;;;;6196356;28;20208;-73
2023/03/18 04:03:52;;;;;;;5.13;1.08;;;13.40;44.90;;;;;;6195805;28;20030;-73
2023/03/18 04:06:54;;;;;;;4.32;1.90;;;13.40;45.00;;;;;;6195539;28;20062;-75
2023/03/18 04:09:56;;;;;;;3.35;0.95;;;13.40;45.00;;;;;;6195232;28;20109;-72
2023/03/18 04:12:57;;;;;;;3.83;1.30;;;13.40;45.10;;;;;;6195523;28;20068;-75
2023/03/18 04:15:59;;;;;;;3.70;1.30;;;13.30;45.20;;;;;;6194954;28;20034;-74
2023/03/18 04:19:00;;;;;;;4.72;1.25;;;13.30;45.30;;;;;;6205973;28;20191;-73
2023/03/18 04:22:02;;;;;;;6.05;1.48;;;13.30;45.30;;;;;;6219091;28;20030;-73
2023/03/18 04:25:05;;;;;;;2.63;1.27;;;13.30;45.30;;;;;;6219566;28;20154;-74
2023/03/18 04:28:06;;;;;;;4.32;1.52;;;13.30;45.40;;;;;;6217570;28;20132;-73
2023/03/18 04:31:13;;;;;;;6.88;1.63;;;13.30;45.40;;;;;;6203282;28;20126;-73
2023/03/18 04:34:15;;;;;;;2.13;1.35;;;13.30;45.40;;;;;;6208368;28;20057;-75
2023/03/18 04:37:19;;;;;;;7.38;1.27;;;13.30;45.30;;;;;;6239354;28;20076;-71
2023/03/18 04:40:22;;;;;;;4.28;1.52;;;13.20;45.20;;;;;;6217529;28;20056;-73
2023/03/18 04:43:24;;;;;;;7.38;1.50;;;13.20;45.10;;;;;;6204063;28;20030;-74
2023/03/18 04:46:28;;;;;;;5.32;1.67;;;13.20;45.20;;;;;;6200697;28;20457;-73
2023/03/18 04:49:33;;;;;;;3.20;1.60;;;13.30;45.30;;;;;;6194675;28;20053;-73
2023/03/18 04:52:41;;;;;;;10.93;1.45;;;13.20;45.50;;;;;;6194786;28;20038;-73
2023/03/18 04:55:45;;;;;;;5.43;1.85;;;13.20;45.70;;;;;;6194331;28;20069;-76
2023/03/18 04:58:48;;;;;;;5.65;1.50;;;13.10;45.90;;;;;;6194048;28;20034;-75
2023/03/18 05:01:54;;;;;;;7.82;1.55;;;13.00;46.10;;;;;;6194437;28;20179;-74
2023/03/18 05:04:55;;;;;;;2.53;1.48;;;13.00;46.40;;;;;;6195625;28;20026;-73
2023/03/18 05:07:56;;;;;;;9.50;1.73;;;12.90;46.70;;;;;;6193752;28;20034;-74
2023/03/18 05:10:58;;;;;;;3.80;1.35;;;12.80;46.80;;;;;;6194288;28;20124;-72
2023/03/18 05:13:59;;;;;;;4.50;1.30;;;12.70;47.10;;;;;;6194422;28;20114;-73
2023/03/18 05:17:03;;;;;;;4.07;1.30;;;12.70;47.20;;;;;;6215492;28;20036;-73
2023/03/18 05:20:07;;;;;;;4.10;1.40;;;12.30;47.20;;;;;;6209883;28;20117;-73
2023/03/18 05:23:09;;;;;;;4.60;1.35;;;12.50;47.40;;;;;;6205408;28;20041;-74
2023/03/18 05:26:23;;;;;;;8.93;1.60;;;12.50;47.50;;;;;;6217885;28;20042;-75
2023/03/18 05:29:25;;;;;;;5.60;1.45;;;12.40;47.60;;;;;;6218191;28;20037;-75
2023/03/18 05:32:44;;;;;;;6.30;1.00;;;12.40;47.70;;;;;;6217905;28;20104;-74
2023/03/18 05:35:46;;;;;;;4.50;1.50;;;12.40;47.90;;;;;;6217900;28;20030;-71
2023/03/18 05:38:49;;;;;;;4.80;1.60;;;12.40;47.90;;;;;;6216955;28;20034;-72
2023/03/18 05:41:51;;;;;;;21.42;2.00;;;12.40;47.80;;;;;;6189227;28;20390;-73
2023/03/18 05:44:58;;;;;;;9.13;1.50;;;12.40;48.00;;;;;;6193080;28;20038;-74
2023/03/18 05:48:00;;;;;;;4.22;1.23;;;12.50;47.90;;;;;;6192845;28;20122;-73
2023/03/18 05:51:03;;;;;;;7.28;1.67;;;12.50;47.90;;;;;;6192808;28;20082;-73
2023/03/18 05:54:05;;;;;;;5.85;1.15;;;12.50;47.90;;;;;;6192896;28;20880;-74
2023/03/18 05:57:14;;;;;;;8.02;1.35;;;12.60;47.90;;;;;;6209292;28;20062;-74
2023/03/18 06:00:17;;;;;;;15.00;3.95;;;12.50;47.90;;;;;;6193014;28;20816;-73
2023/03/18 06:03:23;;;;;;;11.65;1.80;;;12.50;47.90;;;;;;6193737;28;20034;-75
2023/03/18 06:06:24;;;;;;;4.82;1.33;;;12.60;47.90;;;;;;6192639;28;20130;-73
2023/03/18 06:09:26;;;;;;;4.85;1.88;;;12.60;47.90;;;;;;6192191;28;20034;-73
2023/03/18 06:12:27;;;;;;;7.07;2.15;;;12.80;47.90;;;;;;6207274;28;20463;-74
2023/03/18 06:15:29;;;;;;;3.58;1.52;;;12.60;47.90;;;;;;6200590;28;20026;-74
2023/03/18 06:18:32;;;;;;;3.30;1.67;;;12.60;47.90;;;;;;6200284;28;20036;-72
2023/03/18 06:21:35;;;;;;;5.45;1.63;;;12.60;47.90;;;;;;6218294;28;20776;-75
2023/03/18 06:24:37;;;;;;;4.63;1.50;;;12.60;47.90;;;;;;6216391;28;20494;-73
2023/03/18 06:27:38;;;;;;;2.05;1.13;;;12.60;48.00;;;;;;6200211;28;20426;-73
2023/03/18 06:30:40;;;;;;;8.38;1.70;;;12.60;47.90;;;;;;6216416;28;20049;-74
2023/03/18 06:33:45;;;;;;;6.63;1.30;;;12.60;47.90;;;;;;6216738;28;20097;-73
2023/03/18 06:36:49;;;;;;;3.63;1.55;;;12.60;47.80;;;;;;6216904;28;20381;-73
2023/03/18 06:39:52;;;;;;;6.38;1.55;;;12.60;47.70;;;;;;6192336;28;20072;-75
2023/03/18 06:42:53;;;;;;;4.97;1.98;;;12.60;47.60;;;;;;6192540;28;20124;-74
2023/03/18 06:46:04;;;;;;;4.78;1.90;;;12.70;47.60;;;;;;6192716;28;20038;-75
2023/03/18 06:49:06;;;;;;;5.88;1.80;;;12.70;47.50;;;;;;6192601;28;20453;-75
2023/03/18 06:52:13;;;;;;;7.18;1.77;;;12.70;47.40;;;;;;6192628;28;20043;-76
2023/03/18 06:55:17;;;;;;;14.35;1.95;;;12.80;47.50;;;;;;6192864;28;20037;-72
2023/03/18 06:58:19;;;;;;;3.67;1.42;;;12.80;47.50;;;;;;6191527;28;20645;-74
2023/03/18 07:01:31;;;;;;;7.85;1.90;;;12.80;47.70;;;;;;6192062;28;20042;-75
2023/03/18 07:04:33;;;;;;;3.08;1.23;;;12.80;47.70;;;;;;6191920;28;20038;-74
2023/03/18 07:07:36;;;;;;;4.88;1.88;;;12.90;47.70;;;;;;6197149;28;20053;-73
2023/03/18 07:10:38;;;;;;;4.90;1.98;;;12.80;47.70;;;;;;6215854;28;20378;-73
2023/03/18 07:13:46;;;;;;;2.75;1.45;;;12.90;47.50;;;;;;6200899;28;20036;-74
2023/03/18 07:16:54;;;;;;;2.42;1.20;;;12.90;47.30;;;;;;6217065;28;20041;-74
2023/03/18 07:19:56;;;;;;;4.65;1.08;;;12.90;47.00;;;;;;6204979;28;20036;-73
2023/03/18 07:22:58;;;;;;;2.42;1.40;;;13.00;46.90;;;;;;6236345;28;20067;-76
2023/03/18 07:25:59;;;;;;;2.30;1.20;;;13.10;46.80;;;;;;6202841;28;20137;-73
2023/03/18 07:29:00;;;;;;;7.18;1.85;;;13.10;46.60;;;;;;6217845;28;20476;-75
2023/03/18 07:32:02;;;;;;;5.20;1.73;;;13.20;46.60;;;;;;6199771;28;20132;-74
2023/03/18 07:35:09;;;;;;;5.88;1.90;;;13.30;46.50;;;;;;6215783;28;20146;-74
2023/03/18 07:38:11;;;;;;;8.93;2.22;;;13.40;46.40;;;;;;6186593;28;20031;-74
2023/03/18 07:41:12;;;;;;;3.28;1.63;;;13.40;46.30;;;;;;6193141;28;20121;-76
2023/03/18 07:44:13;;;;;;;3.53;1.55;;;13.50;46.20;;;;;;6207513;28;20509;-73
2023/03/18 07:47:14;;;;;;;3.35;1.88;;;13.50;46.10;;;;;;6192344;28;20168;-73
2023/03/18 07:50:15;;;;;;;6.05;1.90;;;13.60;45.90;;;;;;6192932;28;20157;-73
2023/03/18 07:53:16;;;;;;;6.85;1.55;;;13.80;45.90;;;;;;6191047;28;20105;-72
2023/03/18 07:56:18;;;;;;;16.58;1.67;;;13.90;45.60;;;;;;6192858;28;20439;-74
2023/03/18 07:59:19;;;;;;;4.15;1.77;;;14.00;45.50;;;;;;6206964;28;20035;-74
2023/03/18 08:02:20;;;;;;;3.75;1.45;;;14.20;45.30;;;;;;6193915;28;20076;-73
2023/03/18 08:05:22;;;;;;;7.18;1.75;;;14.30;44.90;;;;;;6213967;28;20026;-73
2023/03/18 08:08:23;;;;;;;7.47;1.77;;;14.50;45.20;;;;;;6220005;28;20494;-74
2023/03/18 08:11:24;;;;;;;11.43;2.10;;;14.50;44.20;;;;;;6219857;28;20056;-74
2023/03/18 08:14:25;;;;;;;3.78;1.75;;;14.60;44.20;;;;;;6219708;28;20037;-71
2023/03/18 08:17:27;;;;;;;14.18;2.25;;;14.80;44.10;;;;;;6220918;28;20057;-72
2023/03/18 08:20:28;;;;;;;3.35;1.80;;;14.90;43.90;;;;;;6211415;28;20035;-75
2023/03/18 08:23:29;;;;;;;3.78;2.05;;;15.00;43.50;;;;;;6195625;28;20038;-73
2023/03/18 08:26:30;;;;;;;14.35;3.25;;;15.00;43.30;;;;;;6196420;28;20029;-74
2023/03/18 08:29:32;;;;;;;10.18;2.70;;;15.10;43.30;;;;;;6197578;28;20482;-73
2023/03/18 08:32:33;;;;;;;5.15;2.50;;;15.20;43.10;;;;;;6202914;28;20443;-75
2023/03/18 08:35:35;;;;;;;5.03;2.50;;;15.20;43.00;;;;;;6219302;28;20073;-73
2023/03/18 08:38:36;;;;;;;12.45;2.95;;;15.30;42.80;;;;;;6220151;28;20479;-75
2023/03/18 08:41:37;;;;;;;10.82;2.72;;;15.40;42.70;;;;;;6219215;28;20030;-74
2023/03/18 08:44:39;;;;;;;10.07;3.33;;;15.50;42.50;;;;;;6220289;28;20466;-73
2023/03/18 08:47:40;;;;;;;10.15;2.58;;;15.70;42.20;;;;;;6202385;28;20371;-75
2023/03/18 08:50:41;;;;;;;9.30;2.97;;;15.80;41.80;;;;;;6218981;28;20041;-74
2023/03/18 08:53:42;;;;;;;8.55;3.10;;;16.00;41.90;;;;;;6218675;28;20156;-74
2023/03/18 08:56:43;;;;;;;7.97;3.53;;;16.10;41.60;;;;;;6220408;28;20144;-73
2023/03/18 08:59:44;;;;;;;9.93;3.33;;;16.30;41.20;;;;;;6219272;28;20139;-73
2023/03/18 09:02:46;;;;;;;11.15;3.60;;;16.40;41.10;;;;;;6221144;28;20033;-76
2023/03/18 09:05:48;;;;;;;12.45;4.07;;;16.50;40.90;;;;;;6220112;28;20030;-74
2023/03/18 09:08:49;;;;;;;10.43;3.80;;;16.70;40.70;;;;;;6219317;28;20088;-74
2023/03/18 09:11:50;;;;;;;12.02;4.13;;;16.80;40.50;;;;;;6220957;28;20103;-74
2023/03/18 09:14:51;;;;;;;22.33;5.60;;;16.90;40.30;;;;;;6218071;28;20405;-74
2023/03/18 09:17:52;;;;;;;15.10;4.60;;;16.90;40.00;;;;;;6218226;28;20034;-73
2023/03/18 09:20:53;;;;;;;12.77;4.65;;;16.90;39.80;;;;;;6219897;28;20056;-74
2023/03/18 09:23:54;;;;;;;13.63;5.28;;;16.90;39.60;;;;;;6219875;28;20064;-74
2023/03/18 09:26:55;;;;;;;12.63;4.43;;;16.90;39.70;;;;;;6205513;28;20454;-74
2023/03/18 09:29:56;;;;;;;14.45;4.70;;;16.90;39.70;;;;;;6197137;28;20034;-74
2023/03/18 09:32:58;;;;;;;13.25;5.22;;;17.00;39.50;;;;;;6194723;28;20041;-73
2023/03/18 09:35:59;;;;;;;18.65;4.90;;;17.10;39.30;;;;;;6196115;28;20038;-73
2023/03/18 09:39:00;;;;;;;20.38;5.50;;;17.10;39.20;;;;;;6214839;28;20030;-72
2023/03/18 09:42:35;;;;;;;13.98;4.28;;;17.10;39.10;;;;;;6220712;28;20060;-74
2023/03/18 09:45:53;;;;;;;18.58;5.65;;;17.10;38.90;;;;;;6222464;28;20033;-75
2023/03/18 09:48:59;;;;;;;22.38;5.88;;;17.30;38.70;;;;;;6221979;28;20060;-72
2023/03/18 09:52:17;;;;;;;20.83;5.65;;;17.40;38.40;;;;;;6218558;28;20037;-74
2023/03/18 09:55:39;;;;;;;14.20;5.83;;;17.60;38.20;;;;;;6218426;28;20205;-74
2023/03/18 09:58:59;;;;;;;18.73;5.63;;;17.80;38.00;;;;;;6218920;28;20029;-73
2023/03/18 10:02:02;;;;;;;19.00;5.80;;;18.00;37.50;;;;;;6224473;28;20077;-74
2023/03/18 10:05:45;;;;;;;16.88;6.03;;;18.20;37.00;;;;;;6231497;28;20646;-73
2023/03/18 10:09:08;;;;;;;15.95;6.07;;;18.20;36.50;;;;;;6220467;28;20136;-73
2023/03/18 10:12:15;;;;;;;14.02;5.65;;;18.30;36.10;;;;;;6219841;28;20099;-75
2023/03/18 10:15:37;;;;;;;16.35;5.95;;;18.30;35.50;;;;;;6201762;28;20046;-73
2023/03/18 10:18:42;;;;;;;15.48;5.93;;;18.30;35.00;;;;;;6219224;28;20101;-74
2023/03/18 10:22:01;;;;;;;17.73;6.32;;;18.30;34.90;;;;;;6217858;28;20026;-73
2023/03/18 10:25:18;;;;;;;14.25;6.30;;;18.30;34.50;;;;;;6216832;28;20450;-74
2023/03/18 10:28:37;;;;;;;20.52;5.82;;;18.40;34.40;;;;;;6218252;28;20034;-74
2023/03/18 10:31:57;;;;;;;18.48;6.30;;;18.50;34.10;;;;;;6201183;28;20040;-74
2023/03/18 10:35:23;;;;;;;22.50;7.03;;;18.70;33.90;;;;;;6217291;28;20032;-74
2023/03/18 10:38:41;;;;;;;18.52;6.25;;;18.90;33.50;;;;;;6217448;28;20040;-74
2023/03/18 10:41:48;;;;;;;15.63;6.43;;;19.10;32.90;;;;;;6218854;28;20034;-74
2023/03/18 10:44:51;;;;;;;18.08;6.57;;;19.40;32.50;;;;;;6218644;28;20173;-73
2023/03/18 10:48:04;;;;;;;14.75;6.15;;;19.60;32.00;;;;;;6199694;28;20116;-73
2023/03/18 10:51:39;;;;;;;16.10;6.40;;;19.80;31.70;;;;;;6200408;28;20124;-76
2023/03/18 10:54:49;;;;;;;16.58;5.88;;;20.00;31.50;;;;;;6218062;28;20161;-74
2023/03/18 10:57:50;;;;;;;23.60;6.57;;;20.20;30.90;;;;;;6215968;28;20033;-75
2023/03/18 11:00:51;;;;;;;16.33;6.20;;;20.40;30.90;;;;;;6217082;28;20054;-73
2023/03/18 11:04:00;;;;;;;19.30;6.80;;;20.40;30.40;;;;;;6216048;28;20026;-75
2023/03/18 11:07:04;;;;;;;14.60;6.93;;;20.60;30.50;;;;;;6217655;28;20045;-73
2023/03/18 11:10:16;;;;;;;15.20;6.63;;;20.70;30.20;;;;;;6215854;28;20033;-73
2023/03/18 11:13:19;;;;;;;16.15;6.55;;;20.70;30.00;;;;;;6218226;28;20053;-75
2023/03/18 11:16:43;;;;;;;21.42;6.30;;;20.70;30.00;;;;;;6217925;28;20030;-74
2023/03/18 11:19:47;;;;;;;16.98;5.38;;;20.70;30.50;;;;;;6201560;28;20057;-76
2023/03/18 11:22:54;;;;;;;15.23;6.00;;;20.70;29.80;;;;;;6193605;28;20030;-74
2023/03/18 11:25:55;;;;;;;17.92;7.10;;;20.70;30.00;;;;;;6196762;28;20027;-76
2023/03/18 11:29:12;;;;;;;12.75;6.30;;;20.70;30.00;;;;;;6194205;28;20030;-74
2023/03/18 11:32:28;;;;;;;15.60;6.03;;;20.90;30.00;;;;;;6194205;28;20022;-73
2023/03/18 11:35:57;;;;;;;15.75;5.82;;;21.20;29.90;;;;;;6193892;28;20030;-72
2023/03/18 11:39:03;;;;;;;;;;;21.60;29.60;;;;;;6199091;28;20037;-74
2023/03/18 11:42:31;;;;;;;13.77;6.22;;;21.70;29.20;;;;;;6197024;28;19913;-75
2023/03/18 11:46:06;;;;;;;15.13;6.50;;;21.60;29.00;;;;;;6196716;28;20042;-74
2023/03/18 11:49:16;;;;;;;17.45;6.18;;;21.60;28.90;;;;;;6138732;28;20515;-73
2023/03/18 11:52:53;;;;;;;14.60;6.53;;;21.40;28.80;;;;;;6171406;28;20388;-73
2023/03/18 11:56:20;;;;;;;16.25;5.72;;;21.30;29.10;;;;;;6076162;29;20048;-75
2023/03/18 11:59:27;;;;;;;13.52;6.57;;;21.40;29.10;;;;;;6059854;29;20070;-74
2023/03/18 12:02:41;;;;;;;15.38;6.80;;;21.50;29.00;;;;;;6060913;29;20036;-74
2023/03/18 12:05:51;;;;;;;21.45;6.70;;;21.60;28.80;;;;;;6076575;29;20100;-74
2023/03/18 12:09:21;;;;;;;21.15;6.70;;;22.00;28.70;;;;;;6076592;29;20058;-74
2023/03/18 12:12:25;;;;;;;14.20;6.28;;;22.60;28.20;;;;;;6060811;29;20040;-72
2023/03/18 12:15:46;;;;;;;17.60;6.10;;;23.10;27.60;;;;;;6076454;29;20354;-74
2023/03/18 12:19:04;;;;;;;17.55;6.20;;;23.50;27.30;;;;;;6059767;29;20105;-72
2023/03/18 12:22:24;;;;;;;16.98;6.03;;;23.70;26.50;;;;;;6075936;29;20488;-75
2023/03/18 12:25:38;;;;;;;20.17;6.60;;;23.70;26.50;;;;;;6117596;29;20043;-74
2023/03/18 12:28:48;;;;;;;18.63;6.45;;;23.80;26.50;;;;;;6146395;28;20043;-73
2023/03/18 12:32:17;;;;;;;14.10;5.63;;;23.80;26.30;;;;;;6160497;28;20051;-74
2023/03/18 12:35:48;;;;;;;17.38;5.45;;;23.90;26.20;;;;;;6197027;28;20038;-73
2023/03/18 12:39:11;;;;;;;15.02;6.63;;;24.30;25.80;;;;;;6229468;28;20088;-74
2023/03/18 12:42:18;;;;;;;14.60;5.45;;;24.70;25.40;;;;;;6220143;28;20032;-74
2023/03/18 12:45:23;;;;;;;20.48;6.38;;;25.00;25.10;;;;;;6221339;28;20081;-74
2023/03/18 12:48:31;;;;;;;15.10;6.35;;;25.40;24.80;;;;;;6220119;28;20049;-75
2023/03/18 12:51:49;;;;;;;14.52;6.50;;;25.50;24.60;;;;;;6225991;28;20117;-73
2023/03/18 12:55:20;;;;;;;12.95;5.38;;;25.50;24.50;;;;;;6238376;28;20040;-75
2023/03/18 12:58:37;;;;;;;12.43;5.68;;;25.30;24.30;;;;;;6223992;28;20037;-74
2023/03/18 13:01:56;;;;;;;12.07;5.75;;;25.00;24.60;;;;;;6224998;28;20059;-76
2023/03/18 13:05:02;;;;;;;16.48;6.45;;;24.90;24.70;;;;;;6234265;28;20100;-74
2023/03/18 13:08:06;;;;;;;14.38;5.25;;;24.70;24.90;;;;;;6226217;28;20133;-73
2023/03/18 13:11:11;;;;;;;15.40;6.03;;;24.60;25.00;;;;;;6221693;28;20461;-76
2023/03/18 13:14:35;;;;;;;15.95;5.75;;;24.20;25.20;;;;;;6225359;28;20069;-74
2023/03/18 13:17:43;;;;;;;12.88;5.60;;;23.80;25.50;;;;;;6220752;28;20041;-75
2023/03/18 13:20:46;;;;;;;22.15;6.18;;;23.40;25.80;;;;;;6222563;28;20411;-73
2023/03/18 13:24:23;;;;;;;12.85;6.03;;;23.20;26.10;;;;;;6224844;28;20026;-73
2023/03/18 13:27:52;;;;;;;13.93;6.05;;;23.20;26.20;;;;;;6136007;28;20106;-74
2023/03/18 13:31:05;;;;;;;15.85;5.35;;;23.00;26.30;;;;;;6152890;28;20027;-74
2023/03/18 13:34:12;;;;;;;13.88;5.97;;;22.90;26.50;;;;;;6136381;29;20046;-73
2023/03/18 13:37:34;;;;;;;17.27;5.82;;;22.80;26.60;;;;;;6137016;29;20472;-74
2023/03/18 13:40:47;;;;;;;13.35;5.20;;;22.70;26.80;;;;;;6138661;29;20043;-75
2023/03/18 13:43:50;;;;;;;16.40;5.60;;;22.60;27.00;;;;;;6151118;29;20429;-73
2023/03/18 13:46:59;;;;;;;15.23;6.10;;;22.50;27.00;;;;;;6132713;29;20675;-72
2023/03/18 13:50:05;;;;;;;13.93;5.25;;;22.40;27.10;;;;;;6129608;29;20048;-75
2023/03/18 13:53:24;;;;;;;20.77;5.45;;;22.30;27.10;;;;;;6135010;29;20043;-73
2023/03/18 13:56:32;;;;;;;;;;;22.10;27.20;;;;;;6133889;29;20035;-74
2023/03/18 13:59:32;;;;;;;14.93;5.78;;;22.00;27.30;;;;;;6131771;29;20390;-75
2023/03/18 14:02:44;;;;;;;14.15;5.30;;;21.90;27.30;;;;;;6221051;28;20129;-73
2023/03/18 14:05:46;;;;;;;11.93;5.15;;;21.90;27.40;;;;;;6205704;28;20157;-73
2023/03/18 14:08:52;;;;;;;16.27;5.28;;;21.90;27.50;;;;;;6206132;28;20038;-76
2023/03/18 14:11:53;;;;;;;15.35;4.88;;;21.80;27.50;;;;;;6204943;28;20058;-74
2023/03/18 14:15:00;;;;;;;14.15;5.50;;;21.80;27.50;;;;;;6197012;28;20098;-75
2023/03/18 14:18:01;;;;;;;11.27;5.20;;;21.70;27.50;;;;;;6196356;28;20030;-74
2023/03/18 14:21:07;;;;;;;14.60;5.15;;;21.70;27.50;;;;;;6197882;28;20114;-72
2023/03/18 14:24:11;;;;;;;13.10;5.30;;;21.60;27.50;;;;;;6196961;28;20046;-73
2023/03/18 14:27:20;;;;;;;15.68;5.88;;;21.60;27.60;;;;;;6194625;28;20371;-73
2023/03/18 14:30:47;;;;;;;12.52;5.18;;;21.60;27.70;;;;;;6194307;28;20346;-73
2023/03/18 14:34:21;;;;;;;15.13;5.97;;;21.50;27.50;;;;;;6195833;28;20045;-74
2023/03/18 14:37:31;;;;;;;17.65;5.65;;;21.40;27.50;;;;;;6200989;28;20127;-75
2023/03/18 14:40:40;;;;;;;12.60;4.63;;;21.20;27.60;;;;;;6217723;28;20034;-72
2023/03/18 14:44:20;;;;;;;12.25;4.93;;;21.00;27.80;;;;;;6217700;28;20145;-75
2023/03/18 14:47:38;;;;;;;16.38;6.05;;;20.90;28.00;;;;;;6217713;28;20391;-72
2023/03/18 14:50:44;;;;;;;18.65;4.80;;;20.90;28.00;;;;;;6201896;28;20049;-73
2023/03/18 14:54:05;;;;;;;13.18;5.55;;;20.80;28.00;;;;;;6217155;28;20037;-72
2023/03/18 14:57:07;;;;;;;17.85;5.50;;;20.90;28.10;;;;;;6217415;28;20425;-75
2023/03/18 15:00:23;;;;;;;14.52;5.40;;;20.90;28.00;;;;;;6217425;28;20478;-73
2023/03/18 15:03:26;;;;;;;13.70;4.97;;;20.90;27.90;;;;;;6218233;28;20029;-75
2023/03/18 15:06:28;;;;;;;15.45;4.95;;;20.90;27.90;;;;;;6217975;28;20431;-73
2023/03/18 15:09:33;;;;;;;13.32;4.68;;;20.90;27.80;;;;;;6217123;28;20078;-74
2023/03/18 15:12:36;;;;;;;11.32;4.57;;;20.90;27.90;;;;;;6220715;28;20435;-74
2023/03/18 15:15:38;;;;;;;14.15;5.45;;;20.80;27.90;;;;;;6222321;28;20034;-75
2023/03/18 15:18:39;;;;;;;12.57;4.72;;;20.80;28.00;;;;;;6222305;28;20033;-75
2023/03/18 15:21:40;;;;;;;13.10;4.38;;;20.70;28.00;;;;;;6221711;28;20037;-73
2023/03/18 15:24:42;;;;;;;10.93;4.55;;;20.70;28.10;;;;;;6221047;28;20044;-73
2023/03/18 15:27:44;;;;;;;14.13;4.55;;;20.70;28.10;;;;;;6204731;28;20136;-73
2023/03/18 15:30:57;;;;;;;11.57;4.68;;;20.70;28.10;;;;;;6221438;28;20464;-73
2023/03/18 15:34:17;;;;;;;10.93;4.55;;;20.70;28.10;;;;;;6221611;28;20449;-74
2023/03/18 15:37:31;;;;;;;14.90;4.72;;;20.60;28.10;;;;;;6222777;28;20036;-73
2023/03/18 15:40:36;;;;;;;11.95;4.78;;;20.60;28.20;;;;;;6206055;28;20038;-73
2023/03/18 15:43:41;;;;;;;12.15;5.03;;;20.50;28.10;;;;;;6223245;28;20029;-73
2023/03/18 15:46:45;;;;;;;12.93;4.15;;;20.50;28.20;;;;;;6223471;28;20026;-73
2023/03/18 15:49:57;;;;;;;12.48;4.55;;;20.40;28.20;;;;;;6221677;28;20454;-76
2023/03/18 15:53:23;;;;;;;13.73;4.78;;;20.40;28.30;;;;;;6223380;28;20501;-73
2023/03/18 15:56:28;;;;;;;13.55;4.47;;;20.40;28.20;;;;;;6125568;29;20499;-73
2023/03/18 15:59:32;;;;;;;11.68;4.25;;;20.30;28.20;;;;;;6127497;29;20055;-74
2023/03/18 16:02:33;;;;;;;12.50;4.22;;;20.30;28.30;;;;;;6136515;29;20035;-72
2023/03/18 16:05:34;;;;;;;11.27;3.90;;;20.40;28.40;;;;;;6109807;29;20135;-74
2023/03/18 16:08:35;;;;;;;14.90;4.28;;;20.40;28.40;;;;;;6123034;29;20066;-75
2023/03/18 16:11:36;;;;;;;12.07;3.50;;;20.40;28.30;;;;;;6108965;29;20148;-75
2023/03/18 16:14:41;;;;;;;12.48;4.13;;;20.40;28.30;;;;;;6109445;29;20056;-77